createdAt,value
2023-05-19T00:01:17.897Z,75.49
2023-05-19T00:03:57.606Z,75.26
2023-05-19T00:06:26.784Z,75.33
2023-05-19T00:09:09.479Z,76.26
2023-05-19T00:11:37.989Z,76.09
2023-05-19T00:14:10.579Z,76.09
2023-05-19T00:16:40.542Z,76.18
2023-05-19T00:19:10.373Z,76.45
2023-05-19T00:21:40.804Z,76.65
2023-05-19T00:24:07.550Z,76.75
2023-05-19T00:26:34.162Z,76.86
2023-05-19T00:29:01.024Z,77.05
2023-05-19T00:31:27.705Z,76.96
2023-05-19T00:33:55.550Z,77.16
2023-05-19T00:36:23.290Z,77.50
2023-05-19T00:38:51.346Z,77.13
2023-05-19T00:41:18.144Z,77.44
2023-05-19T00:43:44.959Z,77.22
2023-05-19T00:46:11.680Z,77.64
2023-05-19T00:48:38.245Z,78.17
2023-05-19T00:51:06.718Z,78.47
2023-05-19T00:53:34.798Z,78.16
2023-05-19T00:56:02.930Z,78.15
2023-05-19T00:58:31.250Z,78.19
2023-05-19T01:01:03.835Z,78.67
2023-05-19T01:03:36.307Z,78.40
2023-05-19T01:06:07.975Z,79.44
2023-05-19T01:08:37.419Z,78.81
2023-05-19T01:11:08.310Z,78.83
2023-05-19T01:13:36.949Z,78.77
2023-05-19T01:16:18.376Z,79.50
2023-05-19T01:18:57.221Z,79.57
2023-05-19T01:21:36.482Z,79.55
2023-05-19T01:24:34.028Z,79.12
2023-05-19T01:27:34.605Z,79.48
2023-05-19T01:30:26.184Z,79.55
2023-05-19T01:33:01.875Z,79.49
2023-05-19T01:35:29.918Z,79.67
2023-05-19T01:37:58.454Z,80.28
2023-05-19T01:40:26.669Z,80.33
2023-05-19T01:42:57.316Z,80.45
2023-05-19T01:45:25.823Z,80.99
2023-05-19T01:47:55.602Z,80.38
2023-05-19T01:50:22.736Z,80.51
2023-05-19T01:52:49.563Z,81.00
2023-05-19T01:55:16.226Z,81.04
2023-05-19T01:57:55.713Z,81.48
2023-05-19T02:00:33.851Z,81.70
2023-05-19T02:03:15.560Z,81.53
2023-05-19T02:06:06.845Z,81.52
2023-05-19T02:08:54.689Z,81.15
2023-05-19T02:11:40.085Z,81.33
2023-05-19T02:14:09.089Z,81.00
2023-05-19T02:16:37.240Z,81.50
2023-05-19T02:19:03.842Z,81.76
2023-05-19T02:21:33.230Z,81.97
2023-05-19T02:23:59.860Z,81.96
2023-05-19T02:26:26.996Z,81.93
2023-05-19T02:28:53.538Z,82.55
2023-05-19T02:31:20.196Z,82.05
2023-05-19T02:33:46.834Z,83.24
2023-05-19T02:36:14.590Z,83.44
2023-05-19T02:38:41.178Z,82.91
2023-05-19T02:41:07.848Z,82.66
2023-05-19T02:43:34.543Z,83.51
2023-05-19T02:46:03.823Z,83.61
2023-05-19T02:48:40.093Z,82.95
2023-05-19T02:51:18.679Z,83.36
2023-05-19T02:53:48.502Z,83.12
2023-05-19T02:56:15.071Z,83.77
2023-05-19T02:58:43.161Z,83.97
2023-05-19T03:01:10.137Z,83.80
2023-05-19T03:03:36.872Z,84.20
2023-05-19T03:06:08.696Z,83.94
2023-05-19T03:08:36.350Z,84.29
2023-05-19T03:11:03.463Z,84.09
2023-05-19T03:13:29.982Z,83.39
2023-05-19T03:16:00.842Z,83.66
2023-05-19T03:18:27.681Z,84.07
2023-05-19T03:20:54.257Z,84.31
2023-05-19T03:23:24.460Z,83.79
2023-05-19T03:25:51.016Z,84.04
2023-05-19T03:28:17.829Z,83.75
2023-05-19T03:30:44.458Z,84.45
2023-05-19T03:33:11.462Z,85.00
2023-05-19T03:35:38.221Z,84.79
2023-05-19T03:38:04.684Z,84.90
2023-05-19T03:40:31.276Z,84.85
2023-05-19T03:42:58.129Z,85.06
2023-05-19T03:45:24.698Z,84.89
2023-05-19T03:47:51.376Z,84.90
2023-05-19T03:50:21.198Z,85.24
2023-05-19T03:52:48.954Z,85.08
2023-05-19T03:55:20.270Z,85.46
2023-05-19T03:57:47.438Z,85.01
2023-05-19T04:00:14.428Z,84.85
2023-05-19T04:02:41.654Z,85.02
2023-05-19T04:05:08.580Z,84.99
2023-05-19T04:07:38.075Z,85.06
2023-05-19T04:10:05.838Z,85.12
2023-05-19T04:12:33.078Z,85.12
2023-05-19T04:14:59.854Z,85.34
2023-05-19T04:17:27.688Z,85.14
2023-05-19T04:19:54.660Z,84.90
2023-05-19T04:22:21.330Z,85.64
2023-05-19T04:24:48.762Z,85.48
2023-05-19T04:27:16.658Z,85.37
2023-05-19T04:29:43.702Z,85.74
2023-05-19T04:32:10.767Z,85.03
2023-05-19T04:34:40.425Z,85.47
2023-05-19T04:37:07.761Z,85.14
2023-05-19T04:39:34.595Z,84.97
2023-05-19T04:42:02.699Z,84.85
2023-05-19T04:44:30.125Z,85.14
2023-05-19T04:46:58.333Z,84.80
2023-05-19T04:49:24.935Z,84.99
2023-05-19T04:51:55.580Z,84.72
2023-05-19T04:54:24.993Z,84.27
2023-05-19T04:56:51.498Z,84.34
2023-05-19T04:59:18.129Z,84.20
2023-05-19T05:01:44.761Z,84.08
2023-05-19T05:04:11.498Z,83.69
2023-05-19T05:06:42.559Z,83.46
2023-05-19T05:09:10.756Z,81.29
2023-05-19T05:11:37.574Z,77.83
2023-05-19T05:14:04.400Z,74.71
2023-05-19T05:16:31.993Z,72.65
2023-05-19T05:18:58.861Z,71.15
2023-05-19T05:21:27.434Z,70.09
2023-05-19T05:23:54.368Z,68.76
2023-05-19T05:26:28.603Z,65.64
2023-05-19T05:28:55.257Z,64.12
2023-05-19T05:31:21.716Z,62.35
2023-05-19T05:33:48.386Z,62.23
2023-05-19T05:36:15.065Z,61.86
2023-05-19T05:38:41.634Z,63.08
2023-05-19T05:41:12.676Z,62.24
2023-05-19T05:43:39.189Z,60.52
2023-05-19T05:46:05.821Z,59.29
2023-05-19T05:48:32.631Z,57.79
2023-05-19T05:50:59.579Z,55.64
2023-05-19T05:53:30.887Z,56.17
2023-05-19T05:55:58.053Z,58.42
2023-05-19T05:58:24.579Z,60.09
2023-05-19T06:00:53.035Z,61.63
2023-05-19T06:03:24.539Z,63.85
2023-05-19T06:05:51.572Z,65.61
2023-05-19T06:08:18.269Z,65.64
2023-05-19T06:10:47.241Z,65.37
2023-05-19T06:13:21.706Z,65.72
2023-05-19T06:15:48.234Z,65.15
2023-05-19T06:18:17.551Z,65.99
2023-05-19T06:20:46.965Z,66.14
2023-05-19T06:23:13.813Z,66.19
2023-05-19T06:25:40.408Z,65.66
2023-05-19T06:28:06.940Z,65.95
2023-05-19T06:30:33.809Z,65.38
2023-05-19T06:33:00.918Z,65.28
2023-05-19T06:35:27.682Z,64.70
2023-05-19T06:37:56.848Z,64.12
2023-05-19T06:40:23.808Z,63.02
2023-05-19T06:42:50.542Z,63.21
2023-05-19T06:45:21.781Z,63.03
2023-05-19T06:47:49.207Z,62.86
2023-05-19T06:50:15.910Z,61.58
2023-05-19T06:52:42.900Z,61.68
2023-05-19T06:55:09.649Z,61.10
2023-05-19T06:57:38.307Z,59.75
2023-05-19T07:00:06.712Z,58.91
2023-05-19T07:02:33.388Z,60.49
2023-05-19T07:05:00.044Z,59.01
2023-05-19T07:07:26.794Z,57.52
2023-05-19T07:09:53.355Z,58.34
2023-05-19T07:12:20.228Z,58.05
2023-05-19T07:14:46.873Z,58.40
2023-05-19T07:17:13.382Z,59.02
2023-05-19T07:19:45.325Z,57.71
2023-05-19T07:22:11.972Z,57.56
2023-05-19T07:24:38.586Z,57.06
2023-05-19T07:27:05.584Z,57.98
2023-05-19T07:29:32.322Z,57.16
2023-05-19T07:31:58.912Z,55.11
2023-05-19T07:34:25.595Z,55.17
2023-05-19T07:36:52.264Z,54.21
2023-05-19T07:39:19.405Z,55.28
2023-05-19T07:41:52.620Z,55.01
2023-05-19T07:44:21.621Z,53.78
2023-05-19T07:46:50.579Z,53.71
2023-05-19T07:49:17.247Z,53.56
2023-05-19T07:51:43.999Z,53.33
2023-05-19T07:54:10.626Z,53.83
2023-05-19T07:56:37.422Z,52.38
2023-05-19T07:59:04.581Z,51.79
2023-05-19T08:01:32.400Z,51.22
2023-05-19T08:03:59.238Z,50.99
2023-05-19T08:06:26.213Z,49.73
2023-05-19T08:08:54.276Z,50.40
2023-05-19T08:11:21.384Z,47.83
2023-05-19T08:13:51.134Z,47.62
2023-05-19T08:16:17.861Z,47.08
2023-05-19T08:18:44.481Z,45.99
2023-05-19T08:21:13.505Z,45.21
2023-05-19T08:23:40.062Z,44.18
2023-05-19T08:26:06.682Z,45.23
2023-05-19T08:28:33.332Z,43.57
2023-05-19T08:30:59.864Z,44.47
2023-05-19T08:33:26.428Z,44.74
2023-05-19T08:35:53.007Z,43.48
2023-05-19T08:38:19.542Z,42.05
2023-05-19T08:40:48.196Z,43.75
2023-05-19T08:43:14.886Z,41.72
2023-05-19T08:45:46.448Z,41.85
2023-05-19T08:48:14.486Z,39.35
2023-05-19T08:50:44.785Z,41.54
2023-05-19T08:53:31.814Z,39.25
2023-05-19T08:56:09.999Z,40.19
2023-05-19T08:58:39.759Z,39.41
2023-05-19T09:01:07.845Z,37.30
2023-05-19T09:03:39.326Z,38.56
2023-05-19T09:06:08.803Z,38.87
2023-05-19T09:08:37.473Z,38.46
2023-05-19T09:11:04.204Z,39.48
2023-05-19T09:13:31.332Z,39.30
2023-05-19T09:15:58.540Z,38.84
2023-05-19T09:18:26.478Z,40.41
2023-05-19T09:21:00.966Z,38.35
2023-05-19T09:23:30.677Z,36.93
2023-05-19T09:25:57.540Z,38.58
2023-05-19T09:28:30.481Z,38.49
2023-05-19T09:31:07.354Z,37.38
2023-05-19T09:33:45.619Z,36.95
2023-05-19T09:36:12.873Z,36.42
2023-05-19T09:38:39.873Z,37.36
2023-05-19T09:41:07.330Z,35.66
2023-05-19T09:43:35.206Z,36.75
2023-05-19T09:46:11.237Z,35.22
2023-05-19T09:48:39.587Z,36.20
2023-05-19T09:51:08.285Z,35.59
2023-05-19T09:53:38.893Z,36.35
2023-05-19T09:56:06.270Z,38.61
2023-05-19T09:58:36.998Z,37.09
2023-05-19T10:01:04.704Z,38.34
2023-05-19T10:03:33.045Z,37.63
2023-05-19T10:06:02.197Z,36.07
2023-05-19T10:08:30.621Z,36.46
2023-05-19T10:10:57.822Z,35.82
2023-05-19T10:13:25.515Z,38.05
2023-05-19T10:18:23.122Z,35.81
2023-05-19T10:20:50.307Z,35.43
2023-05-19T10:23:22.922Z,35.05
2023-05-19T10:25:53.571Z,37.11
2023-05-19T10:28:23.653Z,36.65
2023-05-19T10:30:53.113Z,35.32
2023-05-19T10:33:24.589Z,36.98
2023-05-19T10:36:10.892Z,36.05
2023-05-19T10:39:16.657Z,35.67
2023-05-19T10:41:51.811Z,35.31
2023-05-19T10:44:28.734Z,36.14
2023-05-19T10:46:56.733Z,35.30
2023-05-19T10:49:24.106Z,35.20
2023-05-19T10:51:52.351Z,35.05
2023-05-19T10:54:40.763Z,35.71
2023-05-19T10:57:08.371Z,35.64
2023-05-19T10:59:37.800Z,35.42
2023-05-19T11:02:05.427Z,34.15
2023-05-19T11:04:51.815Z,35.37
2023-05-19T11:07:20.517Z,34.93
2023-05-19T11:09:56.631Z,35.64
2023-05-19T11:12:25.363Z,33.14
2023-05-19T11:14:55.574Z,32.44
2023-05-19T11:17:25.126Z,30.15
2023-05-19T11:19:58.741Z,31.82
2023-05-19T11:22:28.050Z,31.65
2023-05-19T11:24:55.427Z,31.61
2023-05-19T11:27:35.798Z,32.32
2023-05-19T11:30:11.770Z,31.68
2023-05-19T11:32:44.342Z,31.17
2023-05-19T11:35:11.280Z,30.96
2023-05-19T11:37:37.891Z,30.11
2023-05-19T11:40:08.348Z,31.00
2023-05-19T11:42:36.162Z,31.58
2023-05-19T11:45:04.033Z,32.30
2023-05-19T11:47:42.133Z,32.19
2023-05-19T11:50:20.285Z,31.03
2023-05-19T11:52:47.559Z,31.29
2023-05-19T11:55:18.204Z,29.83
2023-05-19T11:58:06.020Z,30.36
2023-05-19T12:00:40.011Z,29.83
2023-05-19T12:03:09.139Z,30.40
2023-05-19T12:05:41.805Z,31.23
2023-05-19T12:08:10.525Z,27.99
2023-05-19T12:10:38.643Z,29.46
2023-05-19T12:13:09.030Z,30.51
2023-05-19T12:15:36.085Z,29.66
2023-05-19T12:18:03.374Z,29.18
2023-05-19T12:20:32.655Z,27.02
2023-05-19T12:23:00.678Z,27.24
2023-05-19T12:25:28.864Z,27.95
2023-05-19T12:27:59.905Z,27.44
2023-05-19T12:30:28.749Z,28.51
2023-05-19T12:32:57.741Z,28.89
2023-05-19T12:35:29.011Z,29.02
2023-05-19T12:37:55.600Z,27.22
2023-05-19T12:40:22.353Z,28.73
2023-05-19T12:42:51.872Z,26.43
2023-05-19T12:45:21.474Z,25.94
2023-05-19T12:47:49.221Z,26.13
2023-05-19T12:50:16.270Z,28.10
2023-05-19T12:52:48.129Z,28.58
2023-05-19T12:55:16.698Z,26.47
2023-05-19T12:58:00.043Z,25.55
2023-05-19T13:00:32.520Z,26.16
2023-05-19T13:03:07.753Z,25.64
2023-05-19T13:05:37.938Z,26.86
2023-05-19T13:08:09.154Z,27.46
2023-05-19T13:10:39.899Z,27.95
2023-05-19T13:13:07.632Z,25.67
2023-05-19T13:15:41.420Z,27.62
2023-05-19T13:18:12.026Z,28.20
2023-05-19T13:20:41.114Z,26.97
2023-05-19T13:23:07.762Z,28.89
2023-05-19T13:25:34.520Z,27.98
2023-05-19T13:28:03.932Z,29.83
2023-05-19T13:30:30.805Z,29.86
2023-05-19T13:32:57.399Z,28.35
2023-05-19T13:35:24.089Z,29.92
2023-05-19T13:37:51.039Z,29.51
2023-05-19T13:40:19.235Z,28.61
2023-05-19T13:42:51.562Z,26.73
2023-05-19T13:45:18.428Z,25.51
2023-05-19T13:47:45.132Z,26.17
2023-05-19T13:50:12.464Z,26.44
2023-05-19T13:52:39.165Z,25.79
2023-05-19T13:55:07.114Z,25.72
2023-05-19T13:57:34.083Z,24.58
2023-05-19T14:00:03.876Z,24.55
2023-05-19T14:02:31.063Z,22.60
2023-05-19T14:04:57.904Z,21.69
2023-05-19T14:07:25.463Z,21.74
2023-05-19T14:09:52.490Z,20.84
2023-05-19T14:12:19.290Z,22.90
2023-05-19T14:14:48.967Z,23.49
2023-05-19T14:17:15.721Z,23.59
2023-05-19T14:20:04.547Z,23.37
2023-05-19T14:22:31.063Z,23.78
2023-05-19T14:24:57.682Z,22.66
2023-05-19T14:27:25.394Z,22.27
2023-05-19T14:29:51.848Z,23.24
2023-05-19T14:32:18.778Z,22.21
2023-05-19T14:34:45.434Z,21.67
2023-05-19T14:37:12.385Z,21.98
2023-05-19T14:39:38.853Z,21.64
2023-05-19T14:42:05.653Z,21.13
2023-05-19T14:44:34.976Z,22.02
2023-05-19T14:47:04.132Z,21.83
2023-05-19T14:49:30.687Z,23.52
2023-05-19T14:51:57.156Z,25.25
2023-05-19T14:54:23.737Z,22.89
2023-05-19T14:56:50.262Z,21.29
2023-05-19T14:59:16.676Z,21.01
2023-05-19T15:01:44.600Z,22.00
2023-05-19T15:04:11.311Z,18.62
2023-05-19T15:06:37.862Z,20.19
2023-05-19T15:09:04.421Z,22.43
2023-05-19T15:11:31.093Z,22.26
2023-05-19T15:13:57.745Z,23.15
2023-05-19T15:16:24.355Z,23.03
2023-05-19T15:18:51.748Z,21.63
2023-05-19T15:21:18.503Z,20.62
2023-05-19T15:23:45.221Z,20.30
2023-05-19T15:26:11.909Z,20.67
2023-05-19T15:28:38.394Z,19.78
2023-05-19T15:31:04.907Z,19.47
2023-05-19T15:33:31.491Z,19.74
2023-05-19T15:35:57.988Z,20.63
2023-05-19T15:38:24.559Z,20.73
2023-05-19T15:40:51.113Z,19.70
2023-05-19T15:43:17.662Z,21.45
2023-05-19T15:45:44.219Z,24.70
2023-05-19T15:48:11.431Z,27.04
2023-05-19T15:50:38.309Z,28.47
2023-05-19T15:53:06.839Z,29.58
2023-05-19T15:55:33.339Z,30.40
2023-05-19T15:57:59.908Z,30.67
2023-05-19T16:00:26.553Z,30.28
2023-05-19T16:02:53.096Z,30.22
2023-05-19T16:05:22.083Z,29.48
2023-05-19T16:07:48.684Z,30.38
2023-05-19T16:10:15.201Z,31.47
2023-05-19T16:12:41.994Z,32.36
2023-05-19T16:15:08.964Z,32.66
2023-05-19T16:17:35.508Z,33.33
2023-05-19T16:20:02.021Z,35.66
2023-05-19T16:22:30.353Z,33.84
2023-05-19T16:24:56.880Z,33.27
2023-05-19T16:27:23.413Z,33.65
2023-05-19T16:29:50.061Z,32.22
2023-05-19T16:32:16.646Z,34.84
2023-05-19T16:34:43.165Z,34.43
2023-05-19T16:37:09.688Z,32.99
2023-05-19T16:39:37.319Z,34.06
2023-05-19T16:42:04.679Z,32.08
2023-05-19T16:44:34.095Z,33.02
2023-05-19T16:47:00.926Z,34.01
2023-05-19T16:49:27.504Z,34.57
2023-05-19T16:51:54.235Z,34.74
2023-05-19T16:54:21.303Z,34.53
2023-05-19T16:56:47.835Z,34.93
2023-05-19T16:59:14.639Z,34.79
2023-05-19T17:01:41.372Z,34.85
2023-05-19T17:04:08.232Z,34.43
2023-05-19T17:06:38.145Z,35.54
2023-05-19T17:09:04.658Z,34.97
2023-05-19T17:11:31.534Z,35.00
2023-05-19T17:13:59.977Z,35.74
2023-05-19T17:16:26.832Z,35.90
2023-05-19T17:18:53.499Z,35.46
2023-05-19T17:21:20.189Z,35.62
2023-05-19T17:23:46.806Z,35.76
2023-05-19T17:26:13.582Z,35.88
2023-05-19T17:28:40.059Z,35.50
2023-05-19T17:31:11.252Z,36.40
2023-05-19T17:33:38.221Z,35.67
2023-05-19T17:36:05.395Z,34.97
2023-05-19T17:38:32.281Z,35.14
2023-05-19T17:40:59.515Z,34.82
2023-05-19T17:43:26.676Z,35.45
2023-05-19T17:45:53.663Z,36.21
2023-05-19T17:48:20.490Z,36.38
2023-05-19T17:50:48.172Z,37.56
2023-05-19T17:53:16.022Z,38.55
2023-05-19T17:55:49.890Z,38.63
2023-05-19T17:58:17.285Z,38.52
2023-05-19T18:00:43.958Z,37.59
2023-05-19T18:03:12.056Z,38.84
2023-05-19T18:05:40.117Z,41.79
2023-05-19T18:08:09.341Z,40.89
2023-05-19T18:10:37.808Z,39.00
2023-05-19T18:13:05.097Z,40.11
2023-05-19T18:15:31.755Z,40.65
2023-05-19T18:17:58.343Z,41.39
2023-05-19T18:20:25.011Z,40.60
2023-05-19T18:22:51.589Z,40.99
2023-05-19T18:25:20.024Z,41.10
2023-05-19T18:27:47.456Z,40.71
2023-05-19T18:30:14.082Z,40.86
2023-05-19T18:32:40.827Z,40.90
2023-05-19T18:35:08.386Z,41.29
2023-05-19T18:37:35.038Z,41.38
2023-05-19T18:40:01.632Z,41.42
2023-05-19T18:42:28.157Z,41.18
2023-05-19T18:44:54.675Z,42.08
2023-05-19T18:47:22.813Z,41.87
2023-05-19T18:49:50.061Z,42.14
2023-05-19T18:52:17.097Z,42.41
2023-05-19T18:54:45.909Z,42.25
2023-05-19T18:57:12.850Z,42.39
2023-05-19T18:59:39.402Z,42.50
2023-05-19T19:02:06.568Z,42.71
2023-05-19T19:04:33.549Z,43.23
2023-05-19T19:07:00.128Z,43.75
2023-05-19T19:09:26.656Z,43.76
2023-05-19T19:11:53.084Z,43.63
2023-05-19T19:14:19.913Z,43.92
2023-05-19T19:16:46.527Z,44.32
2023-05-19T19:19:13.156Z,44.67
2023-05-19T19:21:39.821Z,44.17
2023-05-19T19:24:06.617Z,44.58
2023-05-19T19:26:33.178Z,45.12
2023-05-19T19:28:59.700Z,45.07
2023-05-19T19:31:31.540Z,45.50
2023-05-19T19:34:00.863Z,45.37
2023-05-19T19:36:27.415Z,45.96
2023-05-19T19:38:54.144Z,46.08
2023-05-19T19:41:21.519Z,45.98
2023-05-19T19:43:48.124Z,46.61
2023-05-19T19:46:14.733Z,46.76
2023-05-19T19:48:41.454Z,46.89
2023-05-19T19:51:08.049Z,47.06
2023-05-19T19:53:34.564Z,47.70
2023-05-19T19:56:02.543Z,47.72
2023-05-19T19:58:29.911Z,47.82
2023-05-19T20:01:00.615Z,48.49
2023-05-19T20:03:27.838Z,48.61
2023-05-19T20:05:55.945Z,48.67
2023-05-19T20:08:29.381Z,48.94
2023-05-19T20:10:56.219Z,49.47
2023-05-19T20:13:24.698Z,49.60
2023-05-19T20:15:51.531Z,49.47
2023-05-19T20:18:18.128Z,49.68
2023-05-19T20:20:44.727Z,49.88
2023-05-19T20:23:12.654Z,49.83
2023-05-19T20:25:54.811Z,50.28
2023-05-19T20:28:29.271Z,50.08
2023-05-19T20:30:55.989Z,50.83
2023-05-19T20:33:22.574Z,52.52
2023-05-19T20:35:49.131Z,53.83
2023-05-19T20:38:15.653Z,55.65
2023-05-19T20:40:42.656Z,56.62
2023-05-19T20:43:12.267Z,57.21
2023-05-19T20:45:38.858Z,58.80
2023-05-19T20:48:06.044Z,60.01
2023-05-19T20:50:32.992Z,60.46
2023-05-19T20:53:00.994Z,61.25
2023-05-19T20:55:27.621Z,62.05
2023-05-19T20:57:54.326Z,62.49
2023-05-19T21:00:21.033Z,62.74
2023-05-19T21:02:47.790Z,63.56
2023-05-19T21:05:14.337Z,63.78
2023-05-19T21:07:41.221Z,64.17
2023-05-19T21:10:08.136Z,64.38
2023-05-19T21:12:35.262Z,64.54
2023-05-19T21:15:02.161Z,64.55
2023-05-19T21:17:28.880Z,64.48
2023-05-19T21:19:59.367Z,64.41
2023-05-19T21:22:27.011Z,64.55
2023-05-19T21:24:56.423Z,64.69
2023-05-19T21:27:23.111Z,64.71
2023-05-19T21:29:54.254Z,65.13
2023-05-19T21:32:24.024Z,65.22
2023-05-19T21:34:50.653Z,65.34
2023-05-19T21:37:19.745Z,65.35
2023-05-19T21:39:46.460Z,65.53
2023-05-19T21:42:16.152Z,65.60
2023-05-19T21:44:42.715Z,65.41
2023-05-19T21:47:09.272Z,65.42
2023-05-19T21:49:35.800Z,65.73
2023-05-19T21:52:02.335Z,65.57
2023-05-19T21:54:29.085Z,65.46
2023-05-19T21:56:55.596Z,65.65
2023-05-19T21:59:24.829Z,65.26
2023-05-19T22:01:51.443Z,65.25
2023-05-19T22:04:18.901Z,65.66
2023-05-19T22:06:45.678Z,65.84
2023-05-19T22:09:12.800Z,65.45
2023-05-19T22:11:39.725Z,65.43
2023-05-19T22:14:06.478Z,65.31
2023-05-19T22:16:33.072Z,64.88
2023-05-19T22:18:59.776Z,64.79
2023-05-19T22:21:26.349Z,64.51
2023-05-19T22:23:52.889Z,64.35
2023-05-19T22:26:22.357Z,64.44
2023-05-19T22:28:50.152Z,64.49
2023-05-19T22:31:17.032Z,64.61
2023-05-19T22:33:43.711Z,64.30
2023-05-19T22:36:11.151Z,64.14
2023-05-19T22:38:37.702Z,64.39
2023-05-19T22:41:04.303Z,64.44
2023-05-19T22:43:31.172Z,64.48
2023-05-19T22:45:57.778Z,64.56
2023-05-19T22:48:26.560Z,64.74
2023-05-19T22:50:53.181Z,64.62
2023-05-19T22:53:19.832Z,65.04
2023-05-19T22:55:46.694Z,65.20
2023-05-19T22:58:13.191Z,64.93
2023-05-19T23:00:39.696Z,65.26
2023-05-19T23:03:08.092Z,64.93
2023-05-19T23:05:35.268Z,65.65
2023-05-19T23:08:02.169Z,65.48
2023-05-19T23:10:28.879Z,66.31
2023-05-19T23:12:55.364Z,66.04
2023-05-19T23:15:21.919Z,66.27
2023-05-19T23:17:48.646Z,66.55
2023-05-19T23:20:15.286Z,66.92
2023-05-19T23:22:41.875Z,66.59
2023-05-19T23:25:08.472Z,66.75
2023-05-19T23:27:35.803Z,67.02
2023-05-19T23:30:03.466Z,67.03
2023-05-19T23:32:30.103Z,67.33
2023-05-19T23:34:56.636Z,68.17
2023-05-19T23:37:23.275Z,68.07
2023-05-19T23:39:49.889Z,67.90
2023-05-19T23:42:16.538Z,68.40
2023-05-19T23:44:43.136Z,68.48
2023-05-19T23:47:09.812Z,67.96
2023-05-19T23:49:36.356Z,67.96
2023-05-19T23:52:02.987Z,68.15
2023-05-19T23:54:30.288Z,67.88
2023-05-19T23:56:56.983Z,68.88
2023-05-19T23:59:23.516Z,68.61
